Time;durP1;ratioP1;P1;durP2;ratioP2;P2;SDS_P1;SDS_P2;PMS_P1;PMS_P2;Temp;Humidity;BMP_temperature;BMP_pressure;BME280_temperature;BME280_humidity;BME280_pressure;Samples;Min_cycle;Max_cycle;Signal;HPM_P1;HPM_P2
2022/01/11 00:00:25;;;;;;;76.53;29.47;;;;;;;-5.01;98.94;102271.95;3485054;83;99364;-85
2022/01/11 00:05:34;;;;;;;67.57;27.77;;;;;;;-5.03;98.79;102275.38;3535843;81;99226;-86
2022/01/11 00:10:33;;;;;;;73.87;30.60;;;;;;;-5.06;98.70;102276.36;3561682;81;99302;-84
2022/01/11 00:15:32;;;;;;;69.77;31.00;;;;;;;-5.09;98.75;102285.69;3566552;81;99179;-86
2022/01/11 00:20:35;;;;;;;74.07;31.60;;;;;;;-5.12;98.81;102288.84;3572517;81;99202;-86
2022/01/11 00:25:45;;;;;;;77.07;32.43;;;;;;;-5.13;98.69;102294.44;3627039;80;25833;-86
2022/01/11 00:30:47;;;;;;;80.00;31.17;;;;;;;-5.16;98.61;102293.53;3573271;81;98915;-86
2022/01/11 00:35:57;;;;;;;83.83;33.93;;;;;;;-5.19;98.65;102294.80;3631386;79;100110;-86
2022/01/11 00:41:00;;;;;;;76.90;32.53;;;;;;;-5.22;98.60;102295.79;3574133;81;99858;-85
2022/01/11 00:46:01;;;;;;;75.67;30.07;;;;;;;-5.26;98.56;102298.63;3643224;80;99652;-85
2022/01/11 00:51:02;;;;;;;75.72;30.60;;;;;;;-5.31;98.56;102289.09;3570052;81;99606;-85
2022/01/11 00:56:04;;;;;;;74.73;31.47;;;;;;;-5.35;98.86;102294.64;3637462;80;33283;-85
2022/01/11 01:01:05;;;;;;;78.72;31.70;;;;;;;-5.37;98.86;102290.00;3568052;81;99258;-86
2022/01/11 01:06:06;;;;;;;71.83;28.40;;;;;;;-5.39;98.69;102291.60;3642039;80;99066;-85
2022/01/11 01:11:07;;;;;;;78.28;31.23;;;;;;;-5.39;98.62;102298.30;3586237;80;99249;-85
2022/01/11 01:16:08;;;;;;;72.40;29.97;;;;;;;-5.44;98.62;102311.58;3646694;79;98325;-85
2022/01/11 01:21:10;;;;;;;78.53;31.43;;;;;;;-5.53;98.35;102318.28;3576699;81;99222;-86
2022/01/11 01:26:11;;;;;;;78.50;30.70;;;;;;;-5.58;98.80;102311.94;3645585;80;99579;-86
2022/01/11 01:31:15;;;;;;;77.83;32.57;;;;;;;-5.61;98.74;102311.91;3588880;81;99113;-86
2022/01/11 01:36:17;;;;;;;84.63;33.70;;;;;;;-5.60;98.94;102314.87;3638544;80;98178;-86
2022/01/11 01:41:20;;;;;;;78.63;32.60;;;;;;;-5.61;98.98;102328.00;3563582;81;99608;-85
2022/01/11 01:46:22;;;;;;;86.27;35.57;;;;;;;-5.60;98.89;102321.58;3592773;81;98313;-86
2022/01/11 01:51:23;;;;;;;85.97;29.73;;;;;;;-5.62;98.84;102321.50;3643877;80;98897;-85
2022/01/11 01:56:27;;;;;;;83.90;33.87;;;;;;;-5.66;98.67;102320.31;3606131;81;98485;-86
2022/01/11 02:01:29;;;;;;;76.63;30.57;;;;;;;-5.72;98.60;102323.34;3596082;81;99283;-85
2022/01/11 02:06:30;;;;;;;84.80;33.47;;;;;;;-5.76;98.57;102325.37;3615406;80;99030;-86
2022/01/11 02:11:32;;;;;;;80.00;30.30;;;;;;;-5.85;98.18;102329.44;3599822;80;99404;-86
2022/01/11 02:16:34;;;;;;;83.90;33.47;;;;;;;-5.90;98.53;102328.75;3631312;79;98933;-86
2022/01/11 02:21:35;;;;;;;79.30;32.27;;;;;;;-5.92;98.61;102338.89;3644500;80;98541;-86
2022/01/11 02:26:37;;;;;;;78.40;30.47;;;;;;;-5.94;98.40;102344.17;3570360;79;99586;-86
2022/01/11 02:31:39;;;;;;;78.93;29.67;;;;;;;-5.98;98.42;102348.33;3594849;80;99299;-85
2022/01/11 02:36:40;;;;;;;77.03;33.00;;;;;;;-5.99;98.51;102352.05;3642760;80;99167;-84
2022/01/11 02:41:54;;;;;;;77.97;31.83;;;;;;;-6.04;98.43;102344.69;3565693;81;99091;-85
2022/01/11 02:46:55;;;;;;;85.77;35.23;;;;;;;-6.06;98.33;102355.33;3646766;80;98378;-86
2022/01/11 02:51:57;;;;;;;89.83;33.93;;;;;;;-6.10;98.58;102354.95;3638925;80;99300;-85
2022/01/11 02:56:58;;;;;;;80.83;32.17;;;;;;;-6.13;98.31;102359.41;3576762;81;99600;-86
2022/01/11 03:01:59;;;;;;;79.93;30.80;;;;;;;-6.16;98.52;102353.67;3631739;80;99009;-85
2022/01/11 03:06:59;;;;;;;80.77;35.30;;;;;;;-6.18;98.55;102361.92;3584790;81;99213;-85
2022/01/11 03:12:02;;;;;;;74.33;30.03;;;;;;;-6.23;98.54;102362.30;3632724;79;98571;-85
2022/01/11 03:17:05;;;;;;;77.43;28.27;;;;;;;-6.23;98.50;102360.42;3575165;81;99711;-85
2022/01/11 03:22:06;;;;;;;79.37;32.37;;;;;;;-6.28;98.01;102352.75;3617236;80;99374;-85
2022/01/11 03:27:07;;;;;;;82.27;31.40;;;;;;;-6.33;98.32;102353.39;3586511;81;99122;-87
2022/01/11 03:32:09;;;;;;;96.57;39.37;;;;;;;-6.38;98.04;102358.59;3601724;79;98743;-85
2022/01/11 03:37:10;;;;;;;100.67;38.00;;;;;;;-6.39;98.47;102360.16;3655671;80;25909;-86
2022/01/11 03:42:11;;;;;;;96.67;39.87;;;;;;;-6.40;98.29;102363.35;3590374;80;98834;-85
2022/01/11 03:47:13;;;;;;;91.00;35.23;;;;;;;-6.43;98.60;102368.33;3633563;80;99613;-86
2022/01/11 03:52:14;;;;;;;93.93;38.13;;;;;;;-6.48;98.01;102366.31;3574291;81;99639;-86
2022/01/11 03:57:14;;;;;;;90.33;36.77;;;;;;;-6.52;98.14;102367.78;3634225;80;99244;-86
2022/01/11 04:02:16;;;;;;;74.57;32.83;;;;;;;-6.50;98.55;102371.59;3598101;81;99263;-86
2022/01/11 04:07:19;;;;;;;89.53;34.87;;;;;;;-6.55;98.05;102373.56;3644568;80;31372;-86
2022/01/11 04:12:20;;;;;;;94.33;37.37;;;;;;;-6.60;98.02;102380.08;3555679;81;99076;-86
2022/01/11 04:17:22;;;;;;;102.57;39.97;;;;;;;-6.61;98.14;102377.64;3597372;81;98391;-86
2022/01/11 04:22:23;;;;;;;112.37;41.63;;;;;;;-6.66;97.77;102381.48;3602388;81;99330;-85
2022/01/11 04:27:24;;;;;;;96.22;37.67;;;;;;;-6.70;97.90;102393.66;3594137;81;99930;-86
2022/01/11 04:32:26;;;;;;;104.50;38.93;;;;;;;-6.72;98.15;102382.36;3604358;81;99255;-86
2022/01/11 04:37:27;;;;;;;89.23;36.93;;;;;;;-6.73;98.28;102384.20;3646612;80;33260;-86
2022/01/11 04:42:28;;;;;;;92.43;36.47;;;;;;;-6.73;98.11;102380.19;3559784;81;99046;-85
2022/01/11 04:47:29;;;;;;;80.93;31.80;;;;;;;-6.75;98.28;102376.08;3638680;80;99135;-85
2022/01/11 04:52:30;;;;;;;80.80;32.40;;;;;;;-6.76;98.20;102389.17;3574967;81;98903;-86
2022/01/11 04:57:31;;;;;;;79.67;32.87;;;;;;;-6.82;97.82;102392.71;3633150;80;99180;-85
2022/01/11 05:02:32;;;;;;;70.63;30.17;;;;;;;-6.88;97.90;102390.36;3562393;80;99026;-85
2022/01/11 05:07:33;;;;;;;70.60;31.67;;;;;;;-6.88;98.03;102389.02;3635699;80;32900;-86
2022/01/11 05:12:34;;;;;;;74.83;29.37;;;;;;;-6.89;98.09;102390.06;3615526;80;99116;-86
2022/01/11 05:17:36;;;;;;;78.22;32.50;;;;;;;-6.90;98.00;102399.14;3580539;80;98277;-86
2022/01/11 05:22:38;;;;;;;78.57;33.20;;;;;;;-6.94;97.88;102395.74;3649970;79;99201;-86
2022/01/11 05:27:40;;;;;;;81.57;32.57;;;;;;;-6.96;97.68;102407.19;3568929;81;99558;-86
2022/01/11 05:32:42;;;;;;;74.50;31.95;;;;;;;-7.05;97.08;102403.11;3625062;79;99203;-86
2022/01/11 05:37:44;;;;;;;70.43;29.07;;;;;;;-7.11;97.10;102418.68;3571367;81;33477;-86
2022/01/11 05:42:48;;;;;;;77.50;29.57;;;;;;;-7.20;96.83;102424.79;3635533;80;99374;-86
2022/01/11 05:47:52;;;;;;;78.50;31.83;;;;;;;-7.23;97.31;102435.93;3536000;81;99435;-86
2022/01/11 05:52:52;;;;;;;79.80;31.73;;;;;;;-7.30;96.71;102434.31;3575181;80;98581;-86
2022/01/11 05:57:53;;;;;;;84.23;34.37;;;;;;;-7.30;97.53;102431.63;3579314;81;99589;-86
2022/01/11 06:02:55;;;;;;;85.00;34.70;;;;;;;-7.31;97.28;102437.48;3574934;80;98715;-86
2022/01/11 06:07:55;;;;;;;95.07;37.70;;;;;;;-7.28;97.33;102436.25;3565117;81;33832;-86
2022/01/11 06:12:56;;;;;;;97.33;36.35;;;;;;;-7.28;97.47;102445.61;3536562;81;99444;-84
2022/01/11 06:17:57;;;;;;;106.17;39.37;;;;;;;-7.34;97.42;102454.48;3551013;80;99361;-84
2022/01/11 06:22:59;;;;;;;85.97;35.77;;;;;;;-7.34;97.42;102454.48;3568345;81;99275;-84
2022/01/11 06:28:01;;;;;;;105.47;39.57;;;;;;;-7.37;96.96;102461.06;3636187;80;98384;-84
2022/01/11 06:33:02;;;;;;;86.37;36.17;;;;;;;-7.42;97.14;102476.11;3627014;80;99433;-83
2022/01/11 06:38:03;;;;;;;100.63;39.27;;;;;;;-7.47;96.70;102486.08;3613285;80;32779;-83
2022/01/11 06:43:06;;;;;;;94.77;37.77;;;;;;;-7.50;96.84;102495.03;3620602;80;99375;-84
2022/01/11 06:48:08;;;;;;;113.50;45.77;;;;;;;-7.51;97.08;102510.78;3543205;79;99163;-85
2022/01/11 06:53:09;;;;;;;131.07;49.43;;;;;;;-7.52;96.80;102521.17;3521447;82;98677;-85
2022/01/11 06:58:11;;;;;;;118.60;45.20;;;;;;;-7.55;96.98;102525.59;3556185;81;99729;-84
2022/01/11 07:03:12;;;;;;;113.77;42.67;;;;;;;-7.55;96.98;102525.59;3504614;82;98941;-84
2022/01/11 07:08:14;;;;;;;103.50;43.90;;;;;;;-7.51;97.33;102537.02;3579977;81;98838;-85
2022/01/11 07:13:15;;;;;;;107.23;41.37;;;;;;;-7.49;97.47;102528.77;3575659;81;33196;-85
2022/01/11 07:18:19;;;;;;;104.55;44.08;;;;;;;-7.46;97.66;102541.23;3591182;81;99554;-84
2022/01/11 07:23:20;;;;;;;118.50;47.97;;;;;;;-7.45;97.83;102544.70;3532817;82;99837;-84
2022/01/11 07:28:22;;;;;;;110.10;44.77;;;;;;;-7.34;98.16;102554.77;3530392;80;98774;-85
2022/01/11 07:33:23;;;;;;;110.43;46.00;;;;;;;-7.26;98.62;102554.58;3623341;80;98955;-84
2022/01/11 07:38:24;;;;;;;147.20;59.50;;;;;;;-7.15;99.14;102558.75;3634688;80;99401;-84
2022/01/11 07:43:25;;;;;;;174.33;72.10;;;;;;;-7.03;99.34;102548.23;3597776;80;31355;-85
2022/01/11 07:48:27;;;;;;;182.87;76.30;;;;;;;-6.89;99.84;102538.61;3615461;80;99123;-84
2022/01/11 07:53:28;;;;;;;219.27;88.50;;;;;;;-6.78;99.56;102538.45;3634568;79;98964;-86
2022/01/11 07:58:29;;;;;;;220.37;92.73;;;;;;;-6.68;99.46;102535.66;3630310;80;99137;-85
2022/01/11 08:03:30;;;;;;;187.20;78.50;;;;;;;-6.59;99.56;102532.21;3576811;80;98509;-85
2022/01/11 08:08:31;;;;;;;155.93;63.57;;;;;;;-6.45;99.64;102545.83;3609022;80;99138;-85
2022/01/11 08:13:32;;;;;;;148.23;61.30;;;;;;;-6.32;99.75;102545.77;3618138;80;29327;-85
2022/01/11 08:18:34;;;;;;;156.30;63.60;;;;;;;-6.17;100.00;102547.12;3606268;79;99355;-85
2022/01/11 08:23:35;;;;;;;146.17;57.83;;;;;;;-6.00;100.00;102547.44;3624607;80;98668;-85
2022/01/11 08:28:36;;;;;;;134.03;54.23;;;;;;;-5.82;100.00;102536.77;3583299;81;98763;-85
2022/01/11 08:33:38;;;;;;;132.33;55.47;;;;;;;-5.58;100.00;102545.30;3570655;81;98672;-84
2022/01/11 08:38:39;;;;;;;114.37;52.03;;;;;;;-5.35;100.00;102561.63;3631995;80;99357;-84
2022/01/11 08:43:41;;;;;;;113.27;47.90;;;;;;;-5.18;100.00;102548.73;3649712;80;30432;-84
2022/01/11 08:48:42;;;;;;;132.23;57.70;;;;;;;-4.69;100.00;102559.34;3622792;80;98501;-84
2022/01/11 08:53:43;;;;;;;141.53;63.37;;;;;;;-4.12;100.00;102560.67;3549743;81;98986;-83
2022/01/11 08:58:45;;;;;;;138.92;66.02;;;;;;;-3.60;100.00;102566.61;3569273;81;99800;-84
2022/01/11 09:03:46;;;;;;;138.67;65.93;;;;;;;-3.36;100.00;102569.61;3538917;81;99498;-84
2022/01/11 09:08:51;;;;;;;144.33;63.90;;;;;;;-3.23;100.00;102578.83;3538390;81;99917;-85
2022/01/11 09:13:55;;;;;;;126.57;56.47;;;;;;;-3.06;100.00;102592.69;3565600;81;25450;-84
2022/01/11 09:18:57;;;;;;;120.50;55.77;;;;;;;-3.03;100.00;102609.73;3631131;80;98609;-84
2022/01/11 09:23:58;;;;;;;108.43;48.73;;;;;;;-2.97;100.00;102605.27;3590849;81;98674;-84
2022/01/11 09:28:59;;;;;;;103.95;44.77;;;;;;;-2.82;100.00;102609.66;3650990;80;98974;-84
2022/01/11 09:34:01;;;;;;;105.20;47.17;;;;;;;-2.64;100.00;102612.20;3576927;81;98703;-84
2022/01/11 09:39:03;;;;;;;94.33;44.23;;;;;;;-2.52;100.00;102610.34;3581447;81;99344;-84
2022/01/11 09:44:06;;;;;;;102.70;43.97;;;;;;;-2.34;100.00;102610.17;3653330;80;25930;-84
2022/01/11 09:49:07;;;;;;;110.75;47.17;;;;;;;-2.14;100.00;102605.98;3563620;81;99888;-84
2022/01/11 09:54:09;;;;;;;95.40;43.33;;;;;;;-1.97;100.00;102611.45;3637163;79;99095;-84
2022/01/11 09:59:10;;;;;;;84.83;37.00;;;;;;;-1.88;100.00;102613.52;3576863;81;99326;-84
2022/01/11 10:04:16;;;;;;;97.73;40.63;;;;;;;-1.76;100.00;102603.47;3650748;79;98496;-84
2022/01/11 10:09:21;;;;;;;93.58;44.20;;;;;;;-1.71;99.69;102611.66;3627878;79;99351;-84
2022/01/11 10:14:31;;;;;;;89.37;40.67;;;;;;;-1.64;99.92;102601.52;3572916;81;98315;-83
2022/01/11 10:19:33;;;;;;;86.55;42.17;;;;;;;-1.49;100.00;102610.45;3638129;80;98522;-84
2022/01/11 10:24:44;;;;;;;80.30;38.03;;;;;;;-1.30;100.00;102619.94;3532850;81;98198;-85
2022/01/11 10:29:49;;;;;;;82.95;39.78;;;;;;;-1.29;99.51;102604.01;3557903;82;98972;-84
2022/01/11 10:34:54;;;;;;;72.80;31.13;;;;;;;-1.23;99.77;102611.12;3531279;82;99024;-84
2022/01/11 10:40:04;;;;;;;83.83;39.23;;;;;;;-1.06;99.88;102613.28;3489108;83;98844;-82
2022/01/11 10:45:12;;;;;;;82.27;38.23;;;;;;;-0.91;99.61;102614.35;3568197;79;98089;-84
2022/01/11 10:50:18;;;;;;;83.58;38.67;;;;;;;-0.77;99.41;102602.66;3484525;83;97906;-83
2022/01/11 10:55:23;;;;;;;78.55;38.35;;;;;;;-0.74;98.88;102609.73;3537408;82;97900;-83
2022/01/11 11:00:45;;;;;;;82.80;40.23;;;;;;;-0.73;98.30;102603.25;3556555;81;98064;-83
2022/01/11 11:05:53;;;;;;;89.30;38.77;;;;;;;-0.85;97.51;102601.19;3570634;82;97982;-83
2022/01/11 11:11:05;;;;;;;75.27;35.57;;;;;;;-0.98;97.50;102601.55;3549240;78;99006;-82
2022/01/11 11:16:13;;;;;;;82.27;39.47;;;;;;;-1.08;97.66;102605.45;3575816;81;99018;-83
2022/01/11 11:21:34;;;;;;;82.42;38.08;;;;;;;-1.08;97.60;102609.50;3548387;82;99006;-82
2022/01/11 11:26:44;;;;;;;80.73;36.90;;;;;;;-1.05;98.04;102604.94;3545090;81;99040;-82
2022/01/11 11:31:47;;;;;;;85.80;39.73;;;;;;;-1.02;97.59;102604.97;3547689;82;98342;-82
2022/01/11 11:36:48;;;;;;;84.63;39.40;;;;;;;-1.08;97.75;102600.56;3556993;82;99430;-81
2022/01/11 11:41:56;;;;;;;91.13;41.53;;;;;;;-0.99;98.37;102595.03;3552526;82;99190;-82
2022/01/11 11:47:06;;;;;;;111.93;50.77;;;;;;;-0.85;98.51;102590.89;3549505;82;98185;-82
2022/01/11 11:52:34;;;;;;;108.70;51.25;;;;;;;-0.99;97.38;102582.87;3551232;80;98421;-82
2022/01/11 11:57:40;;;;;;;122.10;54.90;;;;;;;-1.07;97.49;102583.28;3552131;82;99049;-83
2022/01/11 12:02:45;;;;;;;120.83;54.27;;;;;;;-1.08;97.70;102580.30;3538887;82;98433;-82
2022/01/11 12:07:49;;;;;;;119.30;52.67;;;;;;;-1.09;97.12;102569.20;3552856;82;26469;-83
2022/01/11 12:12:54;;;;;;;116.40;52.13;;;;;;;-1.10;96.49;102574.33;3555620;81;98125;-83
2022/01/11 12:18:02;;;;;;;132.40;56.68;;;;;;;-1.20;96.54;102563.37;3574918;82;98319;-83
2022/01/11 12:23:03;;;;;;;149.67;67.90;;;;;;;-1.29;96.36;102564.31;3551404;81;99063;-83
2022/01/11 12:28:07;;;;;;;207.07;89.27;;;;;;;-1.28;96.85;102567.30;3583155;81;98437;-83
2022/01/11 12:33:13;;;;;;;147.10;64.47;;;;;;;-1.24;96.66;102563.56;3587560;80;99118;-84
2022/01/11 12:38:14;;;;;;;132.95;59.08;;;;;;;-1.22;96.87;102568.21;3586123;80;99533;-83
2022/01/11 12:43:38;;;;;;;127.20;60.70;;;;;;;-1.21;96.55;102575.25;3577145;81;98982;-84
2022/01/11 12:48:53;;;;;;;139.10;62.03;;;;;;;-1.16;96.88;102573.97;3582808;80;98941;-84
2022/01/11 12:54:20;;;;;;;113.60;49.00;;;;;;;-1.13;96.82;102572.94;3585838;81;98719;-84
2022/01/11 12:59:26;;;;;;;98.25;46.10;;;;;;;-1.13;97.13;102568.89;3598840;81;99058;-84
2022/01/11 13:04:53;;;;;;;91.65;43.83;;;;;;;-1.08;97.22;102574.38;3581560;80;99029;-84
2022/01/11 13:10:08;;;;;;;104.40;45.92;;;;;;;-1.04;97.10;102575.48;3529696;81;98125;-84
2022/01/11 13:15:17;;;;;;;90.63;41.77;;;;;;;-1.01;96.98;102578.23;3608422;80;98295;-84
2022/01/11 13:20:17;;;;;;;88.40;37.43;;;;;;;-1.01;96.67;102576.36;3537281;82;98069;-84
2022/01/11 13:25:45;;;;;;;91.47;39.23;;;;;;;-1.06;96.22;102568.70;3571691;81;97899;-84
2022/01/11 13:30:51;;;;;;;93.90;43.78;;;;;;;-1.06;96.20;102566.83;3607051;80;98966;-84
2022/01/11 13:35:57;;;;;;;;;;;;;;;-1.04;95.92;102570.63;3593402;79;98271;-84
2022/01/11 13:40:59;;;;;;;78.10;35.23;;;;;;;-1.07;95.56;102563.84;3613192;80;84902;-83
2022/01/11 13:46:00;;;;;;;68.67;33.13;;;;;;;-1.19;95.46;102565.83;3621528;79;98145;-84
2022/01/11 13:51:01;;;;;;;67.93;30.17;;;;;;;-1.26;95.61;102576.52;3571687;81;99007;-85
2022/01/11 13:56:11;;;;;;;61.73;29.97;;;;;;;-1.30;95.47;102568.61;3616638;80;33217;-84
2022/01/11 14:01:15;;;;;;;75.57;36.45;;;;;;;-1.36;95.17;102567.73;3571361;80;99429;-84
2022/01/11 14:06:20;;;;;;;60.80;29.97;;;;;;;-1.40;95.05;102570.62;3617707;80;98123;-84
2022/01/11 14:11:37;;;;;;;68.53;32.47;;;;;;;-1.46;94.73;102575.66;3570282;81;99157;-84
2022/01/11 14:16:42;;;;;;;56.48;28.50;;;;;;;-1.49;94.72;102572.64;3622572;80;99017;-84
2022/01/11 14:21:59;;;;;;;72.37;40.53;;;;;;;-1.56;94.61;102572.79;3588461;81;99123;-84
2022/01/11 14:27:00;;;;;;;117.90;66.80;;;;;;;-1.62;94.63;102572.42;3590867;80;98311;-84
2022/01/11 14:32:05;;;;;;;79.37;43.83;;;;;;;-1.56;94.80;102573.31;3575767;81;98703;-84
2022/01/11 14:37:19;;;;;;;55.03;27.60;;;;;;;-1.55;94.66;102568.19;3580285;81;98875;-84
2022/01/11 14:42:30;;;;;;;58.78;28.25;;;;;;;-1.55;94.57;102566.32;3509402;82;99400;-84
2022/01/11 14:47:54;;;;;;;62.43;30.10;;;;;;;-1.57;94.44;102563.06;3536738;82;98158;-83
2022/01/11 14:53:09;;;;;;;61.23;30.07;;;;;;;-1.59;94.45;102561.66;3550096;82;98459;-84
2022/01/11 14:58:10;;;;;;;65.73;30.37;;;;;;;-1.65;94.22;102558.59;3558256;81;99202;-84
2022/01/11 15:03:11;;;;;;;67.83;33.60;;;;;;;-1.69;94.27;102553.39;3577014;81;99236;-83
2022/01/11 15:08:15;;;;;;;65.70;30.83;;;;;;;-1.85;94.04;102547.44;3579900;81;98816;-85
2022/01/11 15:13:20;;;;;;;61.20;29.13;;;;;;;-1.90;94.09;102546.00;3579036;81;99010;-84
2022/01/11 15:18:23;;;;;;;61.60;29.37;;;;;;;-2.13;94.02;102558.27;3580334;81;99904;-84
2022/01/11 15:23:23;;;;;;;70.00;32.47;;;;;;;-2.37;94.13;102562.09;3565784;82;99184;-84
2022/01/11 15:28:25;;;;;;;62.33;31.00;;;;;;;-2.47;94.31;102560.02;3615378;80;99114;-85
2022/01/11 15:33:26;;;;;;;62.67;31.30;;;;;;;-2.54;94.58;102565.25;3616413;79;99183;-84
2022/01/11 15:38:27;;;;;;;67.33;32.23;;;;;;;-2.65;94.55;102566.94;3527436;81;99272;-85
2022/01/11 15:43:32;;;;;;;66.83;31.03;;;;;;;-2.70;94.72;102566.00;3630806;80;99134;-85
2022/01/11 15:48:36;;;;;;;69.87;31.87;;;;;;;-2.83;94.53;102568.95;3538037;81;99010;-85
2022/01/11 15:53:37;;;;;;;66.77;31.83;;;;;;;-2.99;94.63;102566.47;3630504;80;98487;-85
2022/01/11 15:58:38;;;;;;;68.05;32.50;;;;;;;-3.10;94.96;102565.12;3627144;79;99128;-85
2022/01/11 16:03:39;;;;;;;69.57;33.27;;;;;;;-3.11;95.19;102561.59;3637790;80;99128;-85
2022/01/11 16:08:40;;;;;;;71.37;33.53;;;;;;;-3.17;95.10;102557.69;3609737;80;99420;-85
2022/01/11 16:13:41;;;;;;;69.70;34.75;;;;;;;-3.28;95.10;102562.00;3627508;80;33184;-85
2022/01/11 16:18:43;;;;;;;97.15;46.08;;;;;;;-3.45;94.89;102571.83;3628940;79;99111;-85
2022/01/11 16:23:43;;;;;;;106.20;50.50;;;;;;;-3.56;95.45;102577.22;3623649;80;99182;-85
2022/01/11 16:28:45;;;;;;;119.57;56.50;;;;;;;-3.65;95.31;102571.32;3550877;81;99542;-85
2022/01/11 16:33:47;;;;;;;122.80;56.03;;;;;;;-3.72;95.41;102570.61;3538848;82;99705;-85
2022/01/11 16:38:49;;;;;;;133.20;61.40;;;;;;;-3.83;95.21;102590.23;3522976;82;99413;-85
2022/01/11 16:43:50;;;;;;;130.13;61.73;;;;;;;-3.96;95.42;102578.34;3642564;80;33238;-85
2022/01/11 16:48:51;;;;;;;131.77;65.07;;;;;;;-4.00;95.73;102582.53;3571477;81;99055;-85
2022/01/11 16:53:52;;;;;;;135.70;59.80;;;;;;;-4.09;95.78;102580.39;3637059;80;99481;-85
2022/01/11 16:58:52;;;;;;;124.37;60.50;;;;;;;-4.15;95.98;102580.77;3606858;80;98868;-85
2022/01/11 17:03:54;;;;;;;135.23;63.13;;;;;;;-4.26;95.44;102594.17;3636859;78;98946;-85
2022/01/11 17:08:55;;;;;;;133.50;64.33;;;;;;;-4.34;95.93;102592.62;3558555;81;99541;-85
2022/01/11 17:13:56;;;;;;;125.73;61.00;;;;;;;-4.37;96.24;102601.12;3650757;80;32398;-85
2022/01/11 17:18:57;;;;;;;134.70;64.73;;;;;;;-4.50;95.93;102604.48;3574527;81;99171;-86
2022/01/11 17:23:59;;;;;;;151.80;65.63;;;;;;;-4.55;96.29;102605.69;3628903;80;99113;-86
2022/01/11 17:29:03;;;;;;;136.60;64.50;;;;;;;-4.65;96.49;102604.87;3559406;81;99734;-86
2022/01/11 17:34:03;;;;;;;131.60;62.73;;;;;;;-4.68;96.59;102605.84;3638948;79;99848;-86
2022/01/11 17:39:04;;;;;;;156.30;68.30;;;;;;;-4.75;96.43;102610.48;3590746;80;99195;-86
2022/01/11 17:44:06;;;;;;;139.90;66.87;;;;;;;-4.78;96.93;102604.20;3631322;80;30054;-85
2022/01/11 17:49:07;;;;;;;148.20;66.97;;;;;;;-4.76;97.22;102602.13;3577016;81;99258;-85
2022/01/11 17:54:09;;;;;;;155.10;70.60;;;;;;;-4.79;96.92;102606.08;3626046;80;99665;-85
2022/01/11 17:59:11;;;;;;;154.10;71.37;;;;;;;-4.87;96.62;102605.02;3535943;81;99718;-86
2022/01/11 18:04:13;;;;;;;150.23;68.73;;;;;;;-4.91;97.00;102599.78;3621710;80;99417;-84
2022/01/11 18:09:15;;;;;;;152.47;68.47;;;;;;;-4.96;97.09;102602.30;3600676;79;99413;-84
2022/01/11 18:14:25;;;;;;;158.50;71.10;;;;;;;-5.01;96.68;102605.38;3615497;80;33169;-86
2022/01/11 18:19:20;;;;;;;271.20;104.13;;;;;;;-5.14;96.31;102614.91;3612724;79;99429;-84
2022/01/11 18:24:31;;;;;;;200.37;85.47;;;;;;;-5.20;97.17;102605.86;3621040;79;99356;-85
2022/01/11 18:29:33;;;;;;;220.12;90.70;;;;;;;-5.22;97.14;102616.00;3626229;79;99439;-85
2022/01/11 18:34:34;;;;;;;225.87;96.10;;;;;;;-5.26;97.07;102612.11;3570436;81;99696;-85
2022/01/11 18:39:37;;;;;;;184.53;82.63;;;;;;;-5.31;96.91;102620.00;3625474;80;99435;-85
2022/01/11 18:44:41;;;;;;;174.87;74.83;;;;;;;-5.35;96.85;102615.30;3588412;81;25718;-85
2022/01/11 18:49:42;;;;;;;135.40;63.68;;;;;;;-5.41;96.96;102620.20;3618739;80;99148;-85
2022/01/11 18:54:43;;;;;;;119.30;54.33;;;;;;;-5.49;96.94;102619.94;3593351;81;98833;-85
2022/01/11 18:59:44;;;;;;;119.97;52.93;;;;;;;-5.54;96.89;102622.96;3588530;81;99487;-85
2022/01/11 19:04:45;;;;;;;120.47;56.30;;;;;;;-5.61;96.76;102617.67;3622600;80;98949;-85
2022/01/11 19:09:48;;;;;;;126.33;55.60;;;;;;;-5.64;96.90;102622.62;3578301;81;99481;-86
2022/01/11 19:14:51;;;;;;;129.10;57.53;;;;;;;-5.70;96.96;102624.33;3595334;81;99064;-86
2022/01/11 19:19:56;;;;;;;115.50;53.47;;;;;;;-5.78;96.82;102630.47;3586375;81;98440;-85
2022/01/11 19:25:00;;;;;;;151.93;65.27;;;;;;;-5.79;97.19;102644.38;3598790;81;99195;-85
2022/01/11 19:30:05;;;;;;;187.47;77.30;;;;;;;-5.83;97.26;102648.55;3592173;80;99354;-86
2022/01/11 19:35:08;;;;;;;181.13;70.73;;;;;;;-5.84;97.54;102652.28;3589733;81;99376;-85
2022/01/11 19:40:10;;;;;;;170.72;70.40;;;;;;;-5.90;96.76;102660.37;3573926;80;99994;-84
2022/01/11 19:45:13;;;;;;;181.63;75.07;;;;;;;-6.07;97.03;102657.36;3574126;81;98661;-85
2022/01/11 19:50:16;;;;;;;204.07;80.07;;;;;;;-6.02;96.85;102674.97;3588632;80;99322;-87
2022/01/11 19:55:19;;;;;;;235.27;90.90;;;;;;;-6.02;97.29;102667.42;3643765;77;98323;-86
2022/01/11 20:00:23;;;;;;;225.80;87.17;;;;;;;-6.07;96.78;102672.10;3617976;80;99201;-85
2022/01/11 20:05:25;;;;;;;216.37;77.83;;;;;;;-6.09;97.04;102673.34;3590521;81;100060;-84
2022/01/11 20:10:35;;;;;;;269.33;99.90;;;;;;;-6.12;97.05;102671.11;3629315;80;99629;-86
2022/01/11 20:15:31;;;;;;;220.20;79.57;;;;;;;-6.17;97.12;102665.02;3601766;81;99955;-85
2022/01/11 20:20:35;;;;;;;240.37;83.43;;;;;;;-6.18;97.01;102669.25;3649420;80;99558;-86
2022/01/11 20:30:56;;;;;;;200.35;77.05;;;;;;;-6.26;97.17;102673.52;3592196;81;99489;-85
2022/01/11 20:36:00;;;;;;;188.47;71.40;;;;;;;-6.29;97.58;102665.39;3576042;81;98785;-86
2022/01/11 20:41:10;;;;;;;200.87;73.80;;;;;;;-6.28;97.64;102661.67;3566558;80;99379;-85
2022/01/11 20:46:12;;;;;;;182.17;74.57;;;;;;;-6.32;97.04;102671.70;3583971;81;99354;-86
2022/01/11 20:51:24;;;;;;;182.72;71.75;;;;;;;-6.45;96.63;102677.91;3542360;81;99535;-85
2022/01/11 20:56:19;;;;;;;;;;;;;;;-6.46;97.25;102675.44;3591340;81;25895;-87
2022/01/11 21:01:24;;;;;;;177.47;71.73;;;;;;;-6.54;96.90;102677.82;3624339;79;85433;-87
2022/01/11 21:06:25;;;;;;;193.17;79.30;;;;;;;-6.58;97.14;102659.21;3575649;81;99637;-85
2022/01/11 21:11:26;;;;;;;180.13;70.80;;;;;;;-6.58;97.44;102665.91;3625025;79;99369;-86
